Time;durP1;ratioP1;P1;durP2;ratioP2;P2;SDS_P1;SDS_P2;PMS_P1;PMS_P2;Temp;Humidity;BMP_temperature;BMP_pressure;BME280_temperature;BME280_humidity;BME280_pressure;Samples;Min_cycle;Max_cycle;Signal;HPM_P1;HPM_P2
2022/03/23 00:01:11;;;;;;;19.50;6.17;;;;;;;0.30;82.16;95736.25;5068922;28;20298;-62
2022/03/23 00:03:57;;;;;;;10.70;5.60;;;;;;;0.69;82.96;95727.34;5065029;28;20189;-61
2022/03/23 00:06:44;;;;;;;14.20;6.40;;;;;;;0.58;81.40;95728.41;5058285;28;20220;-62
2022/03/23 00:09:30;;;;;;;12.70;5.73;;;;;;;0.27;82.78;95729.72;5069236;28;20201;-62
2022/03/23 00:12:16;;;;;;;9.37;6.30;;;;;;;0.39;82.70;95729.41;5085919;28;20220;-61
2022/03/23 00:15:02;;;;;;;13.77;6.43;;;;;;;0.89;82.51;95725.94;5080356;28;20631;-62
2022/03/23 00:17:50;;;;;;;11.90;5.77;;;;;;;0.89;81.83;95711.72;5071837;28;20213;-62
2022/03/23 00:20:36;;;;;;;7.13;5.70;;;;;;;0.80;81.23;95724.72;5070330;28;20344;-61
2022/03/23 00:23:22;;;;;;;11.17;6.13;;;;;;;0.78;81.13;95714.34;5069705;28;20273;-62
2022/03/23 00:26:08;;;;;;;8.80;5.53;;;;;;;0.49;80.41;95720.69;5054407;28;20189;-62
2022/03/23 00:28:54;;;;;;;8.40;5.67;;;;;;;0.31;82.83;95727.03;5053230;28;20523;-61
2022/03/23 00:31:40;;;;;;;10.60;5.57;;;;;;;0.47;81.96;95727.56;5058933;28;20224;-62
2022/03/23 00:34:26;;;;;;;7.63;5.03;;;;;;;0.24;82.67;95727.75;5051295;28;20293;-62
2022/03/23 00:37:12;;;;;;;9.83;5.80;;;;;;;-0.11;84.64;95720.16;5061786;28;20228;-61
2022/03/23 00:39:59;;;;;;;8.40;6.47;;;;;;;-0.24;86.26;95720.78;5067914;28;20217;-61
2022/03/23 00:42:45;;;;;;;9.77;6.80;;;;;;;0.22;88.07;95726.59;5069684;28;20221;-62
2022/03/23 00:45:31;;;;;;;7.30;5.23;;;;;;;0.05;86.46;95717.25;5068227;28;20200;-61
2022/03/23 00:48:17;;;;;;;9.93;5.90;;;;;;;-0.21;86.25;95725.41;5060843;28;20193;-62
2022/03/23 00:51:03;;;;;;;8.17;5.90;;;;;;;0.00;86.06;95717.56;5055528;28;20213;-62
2022/03/23 00:53:49;;;;;;;12.00;5.77;;;;;;;-0.13;85.54;95724.34;5072089;28;20627;-61
2022/03/23 00:56:36;;;;;;;9.93;6.17;;;;;;;0.07;86.02;95720.31;5056401;28;20582;-63
2022/03/23 00:59:22;;;;;;;7.57;5.23;;;;;;;0.09;85.59;95720.72;5089171;28;20192;-62
2022/03/23 01:02:10;;;;;;;7.77;5.67;;;;;;;0.09;84.32;95709.97;5051237;28;20740;-62
2022/03/23 01:04:56;;;;;;;10.83;5.87;;;;;;;-0.17;86.01;95720.84;5075166;28;20203;-62
2022/03/23 01:07:46;;;;;;;8.67;5.40;;;;;;;0.03;86.42;95716.84;5068538;28;20651;-62
2022/03/23 01:10:34;;;;;;;8.60;5.80;;;;;;;0.07;87.03;95714.94;5066183;28;20282;-62
2022/03/23 01:13:20;;;;;;;7.37;5.93;;;;;;;-0.13;85.74;95714.38;5046345;28;20217;-62
2022/03/23 01:16:06;;;;;;;8.10;5.60;;;;;;;-0.20;87.93;95716.97;5061046;28;20194;-61
2022/03/23 01:18:52;;;;;;;10.07;5.87;;;;;;;-0.26;86.96;95705.06;5058401;28;20193;-62
2022/03/23 01:21:38;;;;;;;15.37;6.30;;;;;;;0.20;87.12;95710.84;5055621;28;20554;-62
2022/03/23 01:24:24;;;;;;;7.13;5.60;;;;;;;0.30;85.29;95710.16;5066663;28;20189;-62
2022/03/23 01:27:12;;;;;;;6.80;5.13;;;;;;;0.39;83.72;95710.59;5076858;28;20623;-62
2022/03/23 01:29:58;;;;;;;8.30;6.20;;;;;;;0.24;84.38;95700.13;5065564;28;20303;-62
2022/03/23 01:32:44;;;;;;;7.80;5.90;;;;;;;0.11;84.40;95693.47;5064834;28;20227;-63
2022/03/23 01:35:30;;;;;;;7.73;5.70;;;;;;;0.15;85.84;95692.38;5068956;28;20206;-62
2022/03/23 01:38:16;;;;;;;7.93;5.87;;;;;;;0.06;84.50;95702.66;5063480;28;20718;-62
2022/03/23 01:41:03;;;;;;;11.37;5.97;;;;;;;0.09;88.10;95699.22;5041194;28;20216;-62
2022/03/23 01:43:50;;;;;;;9.53;5.13;;;;;;;-0.14;86.95;95699.38;5034203;28;20212;-62
2022/03/23 01:46:36;;;;;;;10.57;5.67;;;;;;;-0.38;87.67;95691.88;5079208;28;20224;-62
2022/03/23 01:49:22;;;;;;;7.60;5.93;;;;;;;-0.47;88.75;95709.41;5068957;28;20286;-62
2022/03/23 01:52:11;;;;;;;7.83;5.80;;;;;;;-0.49;89.06;95712.44;5055642;28;20299;-62
2022/03/23 01:55:05;;;;;;;7.90;5.90;;;;;;;-0.71;89.60;95701.84;5071575;28;20305;-62
2022/03/23 01:57:52;;;;;;;7.67;6.07;;;;;;;-0.65;90.91;95711.13;5056640;28;20240;-62
2022/03/23 02:00:38;;;;;;;10.97;6.50;;;;;;;-0.53;90.93;95717.03;5034070;28;20232;-63
2022/03/23 02:03:26;;;;;;;8.13;5.87;;;;;;;-0.55;91.44;95691.69;5069287;28;20195;-63
2022/03/23 02:06:12;;;;;;;9.30;5.47;;;;;;;-0.63;91.23;95695.44;5048434;28;20584;-62
2022/03/23 02:08:59;;;;;;;8.43;6.00;;;;;;;-0.51;93.26;95698.63;5056893;28;20697;-62
2022/03/23 02:11:47;;;;;;;10.40;5.57;;;;;;;-0.34;91.08;95689.25;5049647;28;20209;-62
2022/03/23 02:14:35;;;;;;;9.23;6.13;;;;;;;-0.01;91.29;95697.22;5048181;28;20581;-63
2022/03/23 02:17:21;;;;;;;14.93;5.70;;;;;;;0.13;89.14;95688.53;5054646;28;20208;-62
2022/03/23 02:20:08;;;;;;;7.07;5.80;;;;;;;0.04;87.52;95699.56;5056858;28;20202;-62
2022/03/23 02:22:55;;;;;;;7.87;5.70;;;;;;;0.05;86.55;95697.66;5054258;28;20243;-62
2022/03/23 02:25:46;;;;;;;12.87;6.20;;;;;;;-0.01;86.54;95679.22;5069063;28;20186;-62
2022/03/23 02:28:32;;;;;;;8.47;5.67;;;;;;;-0.57;88.63;95692.06;5081512;28;20198;-62
2022/03/23 02:31:18;;;;;;;8.97;5.77;;;;;;;-0.93;92.59;95690.06;5070515;28;20202;-62
2022/03/23 02:34:04;;;;;;;9.70;5.97;;;;;;;-0.97;94.31;95683.13;5078688;28;20633;-62
2022/03/23 02:36:50;;;;;;;10.07;6.40;;;;;;;-0.57;93.90;95689.38;5058454;28;20189;-63
2022/03/23 02:39:35;;;;;;;9.63;6.10;;;;;;;-0.53;93.82;95692.88;5064923;28;20249;-62
2022/03/23 02:42:22;;;;;;;9.80;6.17;;;;;;;-0.45;92.04;95682.97;5076270;28;20225;-62
2022/03/23 02:45:14;;;;;;;7.73;6.20;;;;;;;-0.77;91.92;95693.34;5068849;28;20186;-63
2022/03/23 02:47:59;;;;;;;7.97;6.20;;;;;;;-1.03;93.60;95690.72;5076885;28;20247;-63
2022/03/23 02:50:45;;;;;;;7.80;5.80;;;;;;;-0.95;94.61;95695.03;5053633;28;20575;-63
2022/03/23 03:02:58;;;;;;;17.27;6.30;;;;;;;-1.22;96.51;95707.69;5079854;28;20263;-62
2022/03/23 03:05:44;;;;;;;13.73;6.70;;;;;;;-1.11;96.71;95696.34;5086800;28;20568;-62
2022/03/23 03:08:45;;;;;;;7.73;6.03;;;;;;;-1.07;95.54;95697.19;5065327;28;20619;-62
2022/03/23 03:11:31;;;;;;;8.13;6.13;;;;;;;-1.23;97.34;95700.03;5046526;28;20698;-62
2022/03/23 03:14:17;;;;;;;9.50;6.80;;;;;;;-1.05;99.35;95702.97;5083383;28;20221;-62
2022/03/23 03:17:04;;;;;;;8.63;5.93;;;;;;;-0.89;96.28;95698.94;5071023;28;20193;-62
2022/03/23 03:19:50;;;;;;;8.20;6.03;;;;;;;-0.73;96.45;95701.44;5066257;28;20193;-62
2022/03/23 03:22:40;;;;;;;8.93;6.53;;;;;;;-0.92;94.48;95699.69;5041700;28;20687;-62
2022/03/23 03:25:26;;;;;;;8.60;5.83;;;;;;;-1.17;95.50;95695.13;5055607;28;20186;-62
2022/03/23 03:28:12;;;;;;;11.40;6.60;;;;;;;-1.07;96.41;95699.84;5063690;28;20198;-62
2022/03/23 03:30:58;;;;;;;10.43;7.07;;;;;;;-0.97;98.10;95705.38;5075445;28;20185;-63
2022/03/23 03:33:44;;;;;;;10.60;6.40;;;;;;;-0.90;94.87;95704.69;5034781;28;20221;-62
2022/03/23 03:36:30;;;;;;;9.47;6.93;;;;;;;-0.84;96.18;95706.69;5049843;28;20675;-63
2022/03/23 03:39:16;;;;;;;10.47;7.07;;;;;;;-0.81;93.12;95711.28;5048239;28;20221;-62
2022/03/23 03:42:02;;;;;;;13.07;5.83;;;;;;;-1.28;95.96;95694.97;5066455;28;20216;-63
2022/03/23 03:44:50;;;;;;;9.60;5.90;;;;;;;-1.39;97.82;95712.78;5066396;28;20185;-62
2022/03/23 03:47:36;;;;;;;10.80;7.30;;;;;;;-0.97;99.02;95713.41;5042360;28;20792;-62
2022/03/23 03:50:22;;;;;;;12.50;7.37;;;;;;;-0.77;97.32;95700.63;5050982;28;20263;-62
2022/03/23 03:53:08;;;;;;;12.60;7.33;;;;;;;-0.75;96.24;95712.53;5054266;28;20547;-62
2022/03/23 03:55:54;;;;;;;8.63;6.30;;;;;;;-0.62;96.31;95716.53;5075841;28;20201;-63
2022/03/23 03:58:40;;;;;;;8.07;6.40;;;;;;;-0.72;93.70;95714.50;5066278;28;20654;-62
2022/03/23 04:01:26;;;;;;;8.40;6.43;;;;;;;-1.20;96.44;95710.00;5058879;28;20233;-62
2022/03/23 04:04:12;;;;;;;10.97;7.20;;;;;;;-1.18;97.54;95707.75;5055991;28;20326;-62
2022/03/23 04:06:58;;;;;;;11.13;6.83;;;;;;;-1.29;98.89;95710.28;5060374;28;20201;-62
2022/03/23 04:09:43;;;;;;;10.77;7.40;;;;;;;-1.52;100.00;95711.47;5057204;28;20264;-62
2022/03/23 04:12:29;;;;;;;13.07;6.57;;;;;;;-1.63;100.00;95711.28;5082542;28;20250;-62
2022/03/23 04:15:15;;;;;;;12.90;6.17;;;;;;;-1.63;100.00;95705.19;5057114;28;20582;-62
2022/03/23 04:18:02;;;;;;;11.67;7.30;;;;;;;-1.36;100.00;95714.78;5072969;28;20296;-62
2022/03/23 04:20:48;;;;;;;8.07;6.67;;;;;;;-1.42;100.00;95703.59;5075980;28;20558;-63
2022/03/23 04:23:34;;;;;;;9.70;6.50;;;;;;;-1.63;100.00;95724.69;5088088;28;20185;-63
2022/03/23 04:26:20;;;;;;;8.00;6.33;;;;;;;-1.75;100.00;95714.16;5037735;28;20200;-62
2022/03/23 04:29:06;;;;;;;11.43;6.40;;;;;;;-1.86;100.00;95721.25;5055645;28;20181;-63
2022/03/23 04:31:53;;;;;;;8.50;6.00;;;;;;;-1.80;100.00;95719.81;5054077;28;20717;-62
2022/03/23 04:34:38;;;;;;;11.47;7.17;;;;;;;-1.41;100.00;95720.44;5069235;28;20225;-62
2022/03/23 04:37:24;;;;;;;9.87;7.33;;;;;;;-1.25;100.00;95729.09;5084199;28;20230;-62
2022/03/23 04:40:12;;;;;;;10.80;6.67;;;;;;;-1.28;100.00;95732.50;5067383;28;20198;-63
2022/03/23 04:42:58;;;;;;;10.17;7.03;;;;;;;-1.31;100.00;95731.28;5071123;28;20675;-62
2022/03/23 04:45:44;;;;;;;12.23;7.87;;;;;;;-1.50;100.00;95741.34;5056582;28;20628;-62
2022/03/23 04:48:30;;;;;;;11.67;7.87;;;;;;;-1.36;100.00;95733.53;5059491;28;20641;-62
2022/03/23 04:51:16;;;;;;;11.47;7.60;;;;;;;-1.24;100.00;95731.41;5075744;28;20214;-63
2022/03/23 04:54:02;;;;;;;10.90;7.17;;;;;;;-1.55;100.00;95747.78;5070719;28;20650;-62
2022/03/23 04:56:48;;;;;;;11.00;7.37;;;;;;;-1.55;100.00;95741.66;5059738;28;20725;-62
2022/03/23 04:59:34;;;;;;;11.73;7.97;;;;;;;-1.26;100.00;95748.97;5079611;28;20199;-62
2022/03/23 05:02:20;;;;;;;8.67;6.47;;;;;;;-1.32;100.00;95750.41;5070058;28;20588;-63
2022/03/23 05:05:07;;;;;;;12.87;6.73;;;;;;;-1.54;100.00;95756.56;5070634;28;20265;-62
2022/03/23 05:07:53;;;;;;;11.67;6.70;;;;;;;-1.79;100.00;95756.19;5069642;28;20189;-62
2022/03/23 05:10:39;;;;;;;10.07;6.80;;;;;;;-1.61;100.00;95746.53;5069103;28;20198;-62
2022/03/23 05:13:25;;;;;;;8.13;6.83;;;;;;;-1.26;100.00;95754.34;5070419;28;20309;-63
2022/03/23 05:16:11;;;;;;;8.47;6.23;;;;;;;-1.53;100.00;95758.88;5068856;28;20639;-63
2022/03/23 05:18:57;;;;;;;9.57;6.40;;;;;;;-1.66;100.00;95759.44;5064461;28;20221;-62
2022/03/23 05:21:43;;;;;;;10.73;6.83;;;;;;;-1.78;100.00;95760.41;5056715;28;20909;-62
2022/03/23 05:24:29;;;;;;;9.60;6.80;;;;;;;-1.81;100.00;95750.41;5066464;28;20190;-62
2022/03/23 05:27:15;;;;;;;10.90;6.87;;;;;;;-1.63;100.00;95766.78;5056418;28;20693;-62
2022/03/23 05:30:03;;;;;;;10.03;7.57;;;;;;;-1.63;100.00;95767.53;5067503;28;20618;-61
2022/03/23 05:32:48;;;;;;;9.93;6.70;;;;;;;-1.42;100.00;95764.41;5057610;28;20559;-61
2022/03/23 05:35:34;;;;;;;8.37;6.93;;;;;;;-1.61;100.00;95769.84;5065538;28;20671;-63
2022/03/23 05:38:20;;;;;;;7.80;6.50;;;;;;;-1.80;100.00;95767.25;5030621;28;20299;-62
2022/03/23 05:41:06;;;;;;;14.23;6.77;;;;;;;-1.91;100.00;95780.44;5064897;28;20251;-62
2022/03/23 05:43:52;;;;;;;10.07;7.57;;;;;;;-1.83;100.00;95776.75;5066382;28;20343;-62
2022/03/23 05:46:38;;;;;;;10.83;7.20;;;;;;;-1.64;100.00;95765.22;5070987;28;20185;-62
2022/03/23 05:49:25;;;;;;;9.93;6.87;;;;;;;-1.63;100.00;95770.19;5065562;28;20194;-63
2022/03/23 05:52:11;;;;;;;10.50;7.40;;;;;;;-1.24;100.00;95773.53;5068968;28;20221;-62
2022/03/23 05:54:57;;;;;;;11.80;7.73;;;;;;;-0.85;100.00;95769.50;5044641;28;20210;-62
2022/03/23 05:57:42;;;;;;;10.33;6.97;;;;;;;-0.62;100.00;95777.44;5076726;28;20185;-62
2022/03/23 06:00:28;;;;;;;9.80;7.33;;;;;;;-0.55;100.00;95775.63;5055242;28;20894;-62
2022/03/23 06:03:14;;;;;;;11.90;7.23;;;;;;;-0.54;100.00;95779.84;5070457;28;20789;-62
2022/03/23 06:06:01;;;;;;;11.40;7.23;;;;;;;-0.92;100.00;95782.00;5072764;28;20213;-62
2022/03/23 06:08:47;;;;;;;13.63;7.37;;;;;;;-0.72;100.00;95784.22;5079207;28;20616;-63
2022/03/23 06:11:33;;;;;;;9.13;7.77;;;;;;;-0.81;100.00;95770.28;5091636;28;20266;-62
2022/03/23 06:14:19;;;;;;;10.83;7.67;;;;;;;-0.60;100.00;95777.84;5077529;28;20220;-62
2022/03/23 06:17:06;;;;;;;9.17;7.07;;;;;;;-0.44;100.00;95781.88;5069875;28;20231;-62
2022/03/23 06:19:51;;;;;;;9.00;7.33;;;;;;;-0.36;100.00;95785.44;5068112;28;20197;-62
2022/03/23 06:22:38;;;;;;;27.50;7.93;;;;;;;-0.29;98.82;95786.28;5063973;28;20217;-62
2022/03/23 06:25:26;;;;;;;12.80;6.83;;;;;;;-0.26;100.00;95788.25;5053671;28;20216;-62
2022/03/23 06:28:12;;;;;;;11.17;6.60;;;;;;;-0.23;99.56;95787.50;5062253;28;20278;-62
2022/03/23 06:30:59;;;;;;;11.40;6.93;;;;;;;0.05;99.52;95799.69;5038199;28;20189;-63
2022/03/23 06:33:45;;;;;;;8.83;6.30;;;;;;;0.30;99.95;95806.88;5084634;28;20284;-63
2022/03/23 06:36:31;;;;;;;12.47;7.33;;;;;;;0.51;98.39;95799.00;5067701;28;20215;-64
2022/03/23 06:39:17;;;;;;;13.97;7.23;;;;;;;0.84;99.49;95803.50;5068436;28;20212;-64
2022/03/23 06:42:03;;;;;;;10.33;7.60;;;;;;;0.95;100.00;95809.75;5070375;28;20218;-64
2022/03/23 06:44:50;;;;;;;16.60;8.83;;;;;;;1.23;98.86;95799.94;5046785;28;20193;-65
2022/03/23 06:47:35;;;;;;;17.60;9.90;;;;;;;1.89;100.00;95798.72;5068230;28;20217;-64
2022/03/23 06:50:21;;;;;;;11.40;8.70;;;;;;;2.36;97.67;95800.38;5062465;28;20229;-64
2022/03/23 06:53:07;;;;;;;11.90;8.53;;;;;;;2.66;92.18;95794.66;5082835;28;20217;-63
2022/03/23 06:55:53;;;;;;;13.40;8.90;;;;;;;2.96;87.95;95795.06;5074904;28;20354;-65
2022/03/23 06:58:39;;;;;;;11.07;8.27;;;;;;;2.90;85.71;95796.59;5082277;28;20193;-64
2022/03/23 07:01:25;;;;;;;14.10;8.13;;;;;;;3.31;84.42;95798.47;5066868;28;20212;-64
2022/03/23 07:04:11;;;;;;;17.33;8.23;;;;;;;3.54;82.69;95804.25;5078010;28;20219;-64
2022/03/23 07:06:57;;;;;;;9.17;7.03;;;;;;;3.90;82.05;95796.78;5069713;28;20239;-64
2022/03/23 07:09:43;;;;;;;10.40;8.10;;;;;;;4.01;81.05;95789.41;5071795;28;20650;-64
2022/03/23 07:12:28;;;;;;;10.93;7.87;;;;;;;3.99;87.46;95797.13;5083093;28;20277;-64
2022/03/23 07:15:14;;;;;;;15.67;8.77;;;;;;;3.66;100.00;95803.03;5071153;28;20233;-64
2022/03/23 07:18:01;;;;;;;10.27;8.23;;;;;;;3.66;100.00;95798.41;5069359;28;20212;-64
2022/03/23 07:20:47;;;;;;;10.97;8.80;;;;;;;3.82;100.00;95797.97;5062957;28;20282;-65
2022/03/23 07:23:35;;;;;;;14.83;8.90;;;;;;;3.87;100.00;95800.25;5068754;28;20195;-65
2022/03/23 07:26:22;;;;;;;13.77;8.87;;;;;;;4.01;100.00;95800.22;5079509;28;20201;-65
2022/03/23 07:29:08;;;;;;;12.30;9.00;;;;;;;4.07;100.00;95808.69;5043594;28;20296;-65
2022/03/23 07:31:54;;;;;;;13.53;8.77;;;;;;;4.11;100.00;95804.00;5067996;28;20213;-64
2022/03/23 07:34:40;;;;;;;10.17;7.90;;;;;;;4.10;100.00;95813.31;5087256;28;20304;-65
2022/03/23 07:37:26;;;;;;;16.40;9.03;;;;;;;4.25;100.00;95807.44;5044660;28;20573;-65
2022/03/23 07:40:12;;;;;;;19.37;8.43;;;;;;;4.48;100.00;95806.94;5059168;28;20315;-65
2022/03/23 07:42:59;;;;;;;12.57;8.70;;;;;;;4.68;100.00;95802.56;5065284;28;20213;-65
2022/03/23 07:45:47;;;;;;;10.50;8.50;;;;;;;4.96;100.00;95802.34;5066845;28;20189;-65
2022/03/23 07:48:33;;;;;;;10.63;8.60;;;;;;;5.02;100.00;95795.34;5056633;28;20230;-65
2022/03/23 07:51:19;;;;;;;11.03;7.90;;;;;;;5.26;100.00;95807.88;5044151;28;20323;-65
2022/03/23 07:54:06;;;;;;;11.57;8.23;;;;;;;5.50;100.00;95815.00;5075025;28;20229;-65
2022/03/23 07:56:52;;;;;;;10.80;8.10;;;;;;;5.67;100.00;95811.34;5071983;28;20273;-65
2022/03/23 07:59:39;;;;;;;13.77;7.67;;;;;;;5.92;89.89;95797.56;5060058;28;20210;-65
2022/03/23 08:02:26;;;;;;;7.47;5.80;;;;;;;6.37;81.17;95804.34;5063648;28;20232;-65
2022/03/23 08:05:12;;;;;;;11.27;6.80;;;;;;;6.64;76.99;95813.28;5040585;28;20194;-65
2022/03/23 08:07:58;;;;;;;8.30;5.83;;;;;;;6.76;76.20;95809.25;5063634;28;20300;-65
2022/03/23 08:10:44;;;;;;;8.43;6.60;;;;;;;6.97;72.34;95812.41;5050888;28;20710;-65
2022/03/23 08:13:29;;;;;;;10.47;6.30;;;;;;;7.12;70.40;95815.69;5077929;28;20262;-65
2022/03/23 08:16:17;;;;;;;8.63;6.40;;;;;;;7.34;68.59;95814.16;5083554;28;20205;-65
2022/03/23 08:19:03;;;;;;;9.57;5.33;;;;;;;7.63;66.04;95817.91;5062228;28;20623;-65
2022/03/23 08:21:51;;;;;;;6.63;5.17;;;;;;;7.82;62.06;95821.84;5052473;28;20267;-66
2022/03/23 08:24:37;;;;;;;13.07;5.40;;;;;;;8.21;59.29;95824.59;5062435;28;20659;-66
2022/03/23 08:27:23;;;;;;;8.97;5.57;;;;;;;8.47;56.78;95820.97;5073059;28;20198;-66
2022/03/23 08:30:09;;;;;;;7.93;4.80;;;;;;;8.78;55.54;95818.75;5071267;28;20194;-66
2022/03/23 08:32:55;;;;;;;7.33;4.80;;;;;;;9.05;53.35;95816.56;5068979;28;20260;-66
2022/03/23 08:35:41;;;;;;;13.80;5.33;;;;;;;9.18;51.96;95820.91;5080390;28;20193;-66
2022/03/23 08:38:27;;;;;;;14.70;5.43;;;;;;;9.45;52.12;95820.69;5080385;28;20204;-66
2022/03/23 08:41:14;;;;;;;23.23;5.93;;;;;;;9.58;51.29;95816.81;5083261;28;20228;-66
2022/03/23 08:43:59;;;;;;;11.90;4.87;;;;;;;9.60;53.22;95819.88;5060012;28;20196;-66
2022/03/23 08:46:45;;;;;;;20.77;5.57;;;;;;;9.52;55.58;95828.66;5050493;28;20929;-66
2022/03/23 08:49:31;;;;;;;12.83;5.03;;;;;;;9.27;56.96;95829.28;5064871;28;20204;-66
2022/03/23 08:52:17;;;;;;;13.97;5.23;;;;;;;9.22;59.01;95829.00;5075753;28;20682;-66
2022/03/23 08:55:04;;;;;;;7.30;5.80;;;;;;;9.27;60.08;95825.78;5056042;28;20213;-66
2022/03/23 08:57:50;;;;;;;11.40;5.30;;;;;;;9.78;57.30;95820.19;5071222;28;20201;-67
2022/03/23 09:00:37;;;;;;;11.20;5.87;;;;;;;10.07;56.40;95820.22;5088935;28;20193;-67
2022/03/23 09:03:23;;;;;;;9.97;5.87;;;;;;;10.19;54.27;95819.53;5076815;28;20663;-66
2022/03/23 09:06:10;;;;;;;12.33;6.20;;;;;;;10.59;53.10;95826.16;5075737;28;20576;-66
2022/03/23 09:08:56;;;;;;;8.83;6.37;;;;;;;10.59;49.56;95822.66;5067394;28;20194;-66
2022/03/23 09:11:43;;;;;;;7.10;5.97;;;;;;;10.72;48.40;95821.47;5053989;28;20224;-66
2022/03/23 09:14:29;;;;;;;11.27;6.73;;;;;;;10.98;47.87;95819.53;5068792;28;20213;-66
2022/03/23 09:17:15;;;;;;;8.40;6.53;;;;;;;11.06;47.67;95814.63;5078463;28;20258;-66
2022/03/23 09:20:02;;;;;;;13.27;6.93;;;;;;;11.45;46.63;95816.88;5070643;28;20201;-66
2022/03/23 09:22:48;;;;;;;11.63;6.33;;;;;;;11.62;46.70;95821.75;5052814;28;20221;-66
2022/03/23 09:25:35;;;;;;;9.03;6.60;;;;;;;11.70;46.08;95817.63;5053168;28;20675;-66
2022/03/23 09:28:21;;;;;;;13.90;7.03;;;;;;;12.15;46.43;95819.97;5067698;28;20205;-66
2022/03/23 09:31:07;;;;;;;13.47;6.93;;;;;;;11.81;46.41;95815.28;5074858;28;20189;-66
2022/03/23 09:33:54;;;;;;;8.93;6.90;;;;;;;12.01;45.84;95818.50;5090672;28;20231;-67
2022/03/23 09:39:46;;;;;;;8.37;7.17;;;;;;;12.25;44.64;95826.31;5079951;28;20213;-66
2022/03/23 09:42:32;;;;;;;9.53;6.90;;;;;;;12.29;45.21;95802.28;5070760;28;20214;-66
2022/03/23 09:45:46;;;;;;;12.80;8.40;;;;;;;12.31;45.00;95816.28;5070205;28;20185;-66
2022/03/23 09:48:26;;;;;;;8.97;7.30;;;;;;;12.50;43.99;95805.03;5049423;28;20561;-66
2022/03/23 09:51:14;;;;;;;12.23;6.97;;;;;;;12.59;43.92;95815.28;5080563;28;20210;-66
2022/03/23 09:54:01;;;;;;;9.80;7.10;;;;;;;12.81;42.02;95803.06;5043774;28;20235;-66
2022/03/23 09:56:47;;;;;;;9.43;6.67;;;;;;;13.24;42.01;95802.19;5072814;28;20201;-66
2022/03/23 09:59:33;;;;;;;10.37;7.47;;;;;;;13.11;41.18;95812.53;5074974;28;20201;-67
2022/03/23 10:02:47;;;;;;;9.50;7.30;;;;;;;12.87;40.63;95803.25;5065085;28;20795;-66
2022/03/23 10:06:04;;;;;;;12.43;7.17;;;;;;;13.09;41.17;95796.53;5085565;28;20607;-66
2022/03/23 10:09:55;;;;;;;8.90;7.47;;;;;;;13.14;40.04;95797.91;5069476;28;20194;-66
2022/03/23 10:13:37;;;;;;;12.87;7.63;;;;;;;13.43;38.93;95792.03;4997277;28;20223;-66
2022/03/23 10:16:23;;;;;;;15.53;7.50;;;;;;;13.39;38.14;95796.94;5036679;28;20296;-66
2022/03/23 10:19:09;;;;;;;11.30;7.63;;;;;;;13.56;35.97;95792.69;5068394;28;20581;-66
2022/03/23 10:22:09;;;;;;;11.50;7.90;;;;;;;13.69;36.55;95796.84;5049374;28;20210;-66
2022/03/23 10:24:55;;;;;;;13.57;7.23;;;;;;;14.11;35.62;95777.78;5068374;28;20189;-66
2022/03/23 10:27:41;;;;;;;23.07;8.33;;;;;;;14.03;33.88;95782.81;5061606;28;20196;-66
2022/03/23 10:30:37;;;;;;;18.47;9.30;;;;;;;13.99;35.44;95784.19;5067364;28;20190;-66
2022/03/23 10:33:24;;;;;;;14.93;7.80;;;;;;;13.97;34.77;95783.88;5075449;28;20197;-66
2022/03/23 10:36:11;;;;;;;12.23;8.37;;;;;;;14.14;34.75;95785.09;5077230;28;20185;-66
2022/03/23 10:39:03;;;;;;;7.97;7.17;;;;;;;14.30;34.61;95780.06;5064960;28;20197;-67
2022/03/23 10:42:04;;;;;;;10.77;7.70;;;;;;;14.37;35.33;95785.25;5083206;28;20243;-67
2022/03/23 10:45:08;;;;;;;8.73;7.60;;;;;;;14.43;35.08;95783.44;5065884;28;20196;-65
2022/03/23 10:47:54;;;;;;;10.27;7.63;;;;;;;14.56;33.60;95764.00;5076599;28;20189;-65
2022/03/23 10:50:57;;;;;;;10.87;8.43;;;;;;;14.52;33.79;95772.41;5074309;28;20193;-65
2022/03/23 10:53:43;;;;;;;9.13;8.03;;;;;;;14.55;34.58;95765.22;5049039;28;20283;-66
2022/03/23 10:56:36;;;;;;;12.37;7.97;;;;;;;14.59;34.77;95763.09;5069083;28;20289;-66
2022/03/23 10:59:25;;;;;;;14.13;8.07;;;;;;;14.57;35.11;95773.00;5066363;28;20215;-65
2022/03/23 11:02:11;;;;;;;10.77;7.93;;;;;;;14.90;33.53;95763.59;5054597;28;20212;-66
2022/03/23 11:04:57;;;;;;;13.40;8.47;;;;;;;15.06;35.17;95751.44;5076930;28;20192;-66
2022/03/23 11:07:43;;;;;;;13.30;8.33;;;;;;;14.99;33.91;95746.28;5068544;28;20186;-66
2022/03/23 11:16:47;;;;;;;10.57;8.10;;;;;;;15.15;32.55;95734.91;5066319;28;20187;-65
2022/03/23 11:19:33;;;;;;;9.93;8.23;;;;;;;15.19;32.88;95738.22;5042675;28;21168;-66
2022/03/23 11:22:19;;;;;;;11.13;8.23;;;;;;;15.51;32.88;95732.72;5058844;28;20694;-66
2022/03/23 11:25:05;;;;;;;9.47;7.90;;;;;;;15.76;31.49;95723.22;5052645;28;20186;-66
2022/03/23 11:27:51;;;;;;;8.67;7.57;;;;;;;15.94;32.52;95727.81;5047724;28;20262;-66
2022/03/23 11:30:37;;;;;;;10.30;7.37;;;;;;;15.59;30.46;95711.84;5051486;28;20578;-66
2022/03/23 11:33:26;;;;;;;11.67;8.43;;;;;;;15.60;30.48;95712.63;5073193;28;20339;-66
2022/03/23 11:36:12;;;;;;;9.37;8.10;;;;;;;15.77;30.77;95719.22;5060847;28;20204;-66
2022/03/23 11:39:01;;;;;;;15.77;9.00;;;;;;;15.41;31.19;95717.50;5045536;28;20194;-66
2022/03/23 11:41:49;;;;;;;12.00;8.47;;;;;;;15.41;31.71;95716.72;5074607;28;20206;-66
2022/03/23 11:44:36;;;;;;;11.67;8.13;;;;;;;15.45;31.14;95720.06;5079170;28;20198;-66
2022/03/23 11:47:45;;;;;;;10.77;8.43;;;;;;;15.83;31.36;95700.06;5072798;28;20189;-66
2022/03/23 11:50:46;;;;;;;11.83;7.23;;;;;;;16.02;30.67;95707.69;5058920;28;20539;-66
2022/03/23 11:53:39;;;;;;;10.27;7.27;;;;;;;15.93;28.68;95707.00;5027249;28;20301;-64
2022/03/23 11:56:58;;;;;;;14.07;8.17;;;;;;;16.06;28.75;95697.25;5070991;28;20185;-65
2022/03/23 11:59:45;;;;;;;9.83;7.17;;;;;;;16.09;29.41;95701.03;5067245;28;20220;-65
2022/03/23 12:02:41;;;;;;;8.80;7.37;;;;;;;16.39;28.75;95708.13;5063475;28;20221;-67
2022/03/23 12:05:33;;;;;;;8.23;7.43;;;;;;;16.16;30.44;95684.91;5074288;28;20223;-66
2022/03/23 12:08:59;;;;;;;16.27;8.80;;;;;;;16.27;29.82;95696.09;5053974;28;20205;-67
2022/03/23 12:11:45;;;;;;;10.33;8.10;;;;;;;16.16;30.20;95690.41;5068089;28;20632;-67
2022/03/23 12:14:34;;;;;;;15.20;8.00;;;;;;;16.15;29.82;95682.63;5070262;28;20216;-66
2022/03/23 12:17:27;;;;;;;10.07;7.87;;;;;;;16.23;29.98;95686.50;5088466;28;20528;-66
2022/03/23 12:20:15;;;;;;;12.97;8.33;;;;;;;16.30;29.83;95688.91;5058892;28;20217;-67
2022/03/23 12:23:13;;;;;;;12.67;7.50;;;;;;;16.37;30.08;95674.72;5065040;28;20715;-67
2022/03/23 12:26:39;;;;;;;9.83;8.07;;;;;;;16.34;29.03;95675.69;5064538;28;20190;-66
2022/03/23 12:29:34;;;;;;;8.73;7.57;;;;;;;16.40;28.79;95669.03;5061974;28;20220;-66
2022/03/23 12:32:20;;;;;;;10.90;7.63;;;;;;;16.41;28.64;95659.50;5065377;28;20222;-66
2022/03/23 12:35:06;;;;;;;8.23;6.93;;;;;;;16.58;28.21;95652.28;5039305;28;20286;-66
2022/03/23 12:37:52;;;;;;;10.87;7.10;;;;;;;16.66;28.10;95647.91;5068069;28;20629;-65
2022/03/23 12:40:44;;;;;;;9.37;6.83;;;;;;;16.68;27.44;95648.19;5061266;28;20227;-66
2022/03/23 12:43:36;;;;;;;11.77;7.20;;;;;;;16.80;28.24;95644.34;5057275;28;20675;-66
2022/03/23 12:46:24;;;;;;;8.83;7.40;;;;;;;16.68;27.73;95650.94;5063301;28;20636;-66
2022/03/23 12:58:49;;;;;;;9.30;6.67;;;;;;;16.80;26.83;95636.06;5073062;28;20193;-66
2022/03/23 13:01:35;;;;;;;8.00;6.10;;;;;;;16.95;27.40;95638.81;5080156;28;20244;-65
2022/03/23 13:04:42;;;;;;;10.10;6.83;;;;;;;17.07;27.12;95637.69;5073084;28;20190;-65
2022/03/23 13:07:28;;;;;;;8.67;7.00;;;;;;;16.70;26.78;95636.66;5071350;28;20308;-65
2022/03/23 13:10:14;;;;;;;9.83;7.10;;;;;;;16.76;27.63;95632.75;5063312;28;20224;-64
2022/03/23 13:13:08;;;;;;;8.27;6.50;;;;;;;16.81;27.53;95628.56;5036943;28;20230;-66
2022/03/23 13:15:54;;;;;;;10.70;6.67;;;;;;;17.09;28.28;95635.22;5047803;28;20278;-66
2022/03/23 13:18:41;;;;;;;9.83;6.67;;;;;;;16.98;27.44;95626.81;5039096;28;23345;-67
2022/03/23 13:21:30;;;;;;;11.77;7.20;;;;;;;16.74;26.01;95624.22;5081553;28;20213;-66
2022/03/23 13:24:15;;;;;;;8.90;7.03;;;;;;;16.56;27.42;95609.91;5068038;28;20277;-66
2022/03/23 13:27:11;;;;;;;10.27;7.00;;;;;;;16.94;26.56;95615.19;5081766;28;20275;-66
2022/03/23 13:30:01;;;;;;;7.93;6.70;;;;;;;17.31;26.39;95607.91;5075505;28;20225;-66
2022/03/23 13:32:49;;;;;;;13.33;6.60;;;;;;;17.23;26.04;95609.56;5068912;28;20214;-66
2022/03/23 13:35:43;;;;;;;8.97;5.93;;;;;;;17.35;25.37;95608.47;5069829;28;20221;-66